Diego Garcia, British Indian Ocean

5:22 PM IOT on September 01, 2014 (GMT +0600)
Diego Garcia Navy | Change Station
CLOSE
Current Station
Airport
Location: Diego Garcia,
Elevation: 10 ft
Nearby Weather Stations

Elev 10 ft 7.31 °S, 72.41 °E | Updated 27 minutes ago

Scattered Clouds
Scattered Clouds
83 °F
Feels Like 91 °F
N
7
Wind Variable Wind from ESE

Today
High -- | Low -- °F
--% Chance of Precip.
Yesterday
High -- | Low -- °F
Precip. -- in
7:11 AM 7:09 PM
Waxing Crescent, 40% visible
Pressure 29.79 in
Visibility 6.2 miles
Clouds Few 2000 ft
Scattered Clouds 8000 ft
Scattered Clouds 25000 ft
Heat Index 91 °F
Dew Point 76 °F
Humidity 79%
Rainfall 0.00 in
Snow Depth Not available.
UV 3 out of 12
Pollen Not available.
Air Quality Not available.
Flu Activity Not available.
METAR FJDG 011055Z 11006KT 9999 FEW020 SCT080 SCT250 28/25 A2980 RMK SLP088 T02840245

More Conditions Fewer Conditions

Pressure 29.79 in
Visibility 6.2 miles
Clouds Few 2000 ft
Scattered Clouds 8000 ft
Scattered Clouds 25000 ft
Heat Index 91 °F
Dew Point 76 °F
Humidity 79%
Rainfall 0.00 in
Snow Depth Not available.
UV 3 out of 12
Pollen Not available.
Air Quality Not available.
Flu Activity Not available.
METAR FJDG 011055Z 11006KT 9999 FEW020 SCT080 SCT250 28/25 A2980 RMK SLP088 T02840245

More Conditions Fewer Conditions

10-Day Weather Forecast

Almanac

Astronomy

Sep. 01, 2014 Rise Set
Actual Time 7:11 AM IOT 7:09 PM IOT
Civil Twilight 6:50 AM IOT 7:30 PM IOT
Nautical Twilight 6:26 AM IOT 7:55 PM IOT
Astronomical Twilight 6:01 AM IOT 8:19 PM IOT
Moon 11:50 AM IOT No Moon Set
Length of Visible Light 12h 40m
Length of Day
11h 58m
Tomorrow will be 0m 22s longer.
Waxing Crescent, 40% of the Moon is Illuminated
Today
Waxing Crescent
Sep 2
First Quarter
Sep 8
Full
Sep 15
Last Quarter
Sep 24
New

Yesterday's Extremes

Country Highs Country Lows

Community

WunderPhotos

Upload Photos

1,749,188 photos uploaded!

Nearby

Snow Depth

Not available.

Earthquake Activity

City Distance Mag. Time & Date
No recent earthquake activity has been reported nearby.
Minimum magnitude displayed is 2.5.

Coastal Water Temperatures

Place Temperature
No Stations Reporting

Nearby Weather Stations